createdAt,value
2023-01-28T00:00:46.322Z,96338.25
2023-01-28T00:03:16.227Z,96335.69
2023-01-28T00:05:44.847Z,96338.19
2023-01-28T00:08:13.898Z,96333.19
2023-01-28T00:10:45.387Z,96334.06
2023-01-28T00:13:15.988Z,96341.69
2023-01-28T00:15:45.956Z,96334.22
2023-01-28T00:18:14.860Z,96332.53
2023-01-28T00:20:43.217Z,96331.78
2023-01-28T00:23:15.055Z,96329.28
2023-01-28T00:25:43.715Z,96321.66
2023-01-28T00:28:16.833Z,96325.81
2023-01-28T00:30:48.703Z,96320.75
2023-01-28T00:33:17.427Z,96324.91
2023-01-28T00:35:45.900Z,96324.84
2023-01-28T00:38:14.864Z,96321.59
2023-01-28T00:40:45.870Z,96310.69
2023-01-28T00:43:15.906Z,96317.34
2023-01-28T00:45:44.553Z,96312.53
2023-01-28T00:48:13.902Z,96314.19
2023-01-28T00:50:44.570Z,96312.53
2023-01-28T00:53:13.130Z,96317.50
2023-01-28T00:55:41.683Z,96318.34
2023-01-28T00:58:10.162Z,96320.88
2023-01-28T01:00:44.377Z,96320.88
2023-01-28T01:03:13.395Z,96324.19
2023-01-28T01:05:42.090Z,96328.44
2023-01-28T01:08:10.429Z,96324.25
2023-01-28T01:10:39.752Z,96331.00
2023-01-28T01:13:08.984Z,96330.25
2023-01-28T01:15:40.258Z,96331.97
2023-01-28T01:18:11.699Z,96331.19
2023-01-28T01:20:45.698Z,96337.03
2023-01-28T01:23:14.333Z,96341.22
2023-01-28T01:25:42.733Z,96336.16
2023-01-28T01:28:11.189Z,96339.50
2023-01-28T01:30:42.271Z,96339.50
2023-01-28T01:33:11.005Z,96341.13
2023-01-28T01:35:39.567Z,96335.22
2023-01-28T01:38:08.304Z,96349.50
2023-01-28T01:40:37.419Z,96339.56
2023-01-28T01:43:17.207Z,96338.81
2023-01-28T01:45:50.349Z,96347.19
2023-01-28T01:48:21.161Z,96340.44
2023-01-28T01:50:54.501Z,96336.19
2023-01-28T01:53:24.271Z,96333.09
2023-01-28T01:55:55.775Z,96339.81
2023-01-28T01:58:27.501Z,96338.09
2023-01-28T02:00:57.533Z,96343.94
2023-01-28T02:03:30.351Z,96341.41
2023-01-28T02:05:59.840Z,96345.75
2023-01-28T02:08:28.843Z,96342.44
2023-01-28T02:11:00.766Z,96342.38
2023-01-28T02:13:31.830Z,96349.88
2023-01-28T02:16:03.020Z,96351.50
2023-01-28T02:18:31.920Z,96347.28
2023-01-28T02:21:32.650Z,96348.94
2023-01-28T02:24:27.048Z,96349.78
2023-01-28T02:27:04.376Z,96348.09
2023-01-28T02:29:38.365Z,96352.28
2023-01-28T02:32:12.505Z,96353.22
2023-01-28T02:34:43.514Z,96359.91
2023-01-28T02:37:19.269Z,96366.56
2023-01-28T02:39:50.712Z,96364.09
2023-01-28T02:42:20.954Z,96362.56
2023-01-28T02:44:54.317Z,96359.41
2023-01-28T02:47:55.022Z,96364.38
2023-01-28T02:50:23.726Z,96371.97
2023-01-28T02:53:18.788Z,96366.81
2023-01-28T02:55:55.634Z,96365.97
2023-01-28T02:58:28.899Z,96370.84
2023-01-28T03:01:05.681Z,96361.56
2023-01-28T03:03:41.259Z,96358.91
2023-01-28T03:06:12.095Z,96359.75
2023-01-28T03:09:04.720Z,96363.91
2023-01-28T03:11:53.794Z,96361.47
2023-01-28T03:14:40.024Z,96359.84
2023-01-28T03:17:31.841Z,96346.97
2023-01-28T03:20:18.183Z,96358.91
2023-01-28T03:23:07.833Z,96363.13
2023-01-28T03:25:54.494Z,96358.88
2023-01-28T03:28:51.110Z,96358.06
2023-01-28T03:31:38.788Z,96362.19
2023-01-28T03:34:26.872Z,96365.44
2023-01-28T03:36:56.937Z,96368.66
2023-01-28T03:39:27.316Z,96366.81
2023-01-28T03:42:01.106Z,96363.38
2023-01-28T03:44:47.067Z,96361.78
2023-01-28T03:47:15.983Z,96361.78
2023-01-28T03:49:49.299Z,96363.41
2023-01-28T03:52:18.948Z,96358.38
2023-01-28T03:54:50.456Z,96358.34
2023-01-28T03:57:20.453Z,96365.88
2023-01-28T03:59:50.176Z,96372.53
2023-01-28T04:02:19.570Z,96378.28
2023-01-28T04:04:50.535Z,96372.38
2023-01-28T04:07:19.477Z,96379.88
2023-01-28T04:09:48.280Z,96377.41
2023-01-28T04:12:16.911Z,96379.94
2023-01-28T04:14:45.493Z,96388.25
2023-01-28T04:17:14.267Z,96390.72
2023-01-28T04:19:45.282Z,96392.34
2023-01-28T04:22:15.359Z,96394.03
2023-01-28T04:24:44.171Z,96393.19
2023-01-28T04:27:12.709Z,96397.31
2023-01-28T04:29:41.309Z,96397.28
2023-01-28T04:32:11.595Z,96384.75
2023-01-28T04:34:40.582Z,96389.97
2023-01-28T04:37:10.919Z,96387.47
2023-01-28T04:39:40.875Z,96391.59
2023-01-28T04:42:09.941Z,96391.56
2023-01-28T04:44:38.351Z,96395.69
2023-01-28T04:47:06.772Z,96394.06
2023-01-28T04:49:35.478Z,96396.56
2023-01-28T04:52:04.110Z,96397.47
2023-01-28T04:54:33.015Z,96400.72
2023-01-28T04:57:02.792Z,96407.38
2023-01-28T04:59:31.426Z,96408.16
2023-01-28T05:01:59.861Z,96408.09
2023-01-28T05:04:31.152Z,96414.78
2023-01-28T05:07:00.470Z,96414.78
2023-01-28T05:09:29.198Z,96421.44
2023-01-28T05:11:57.667Z,96422.28
2023-01-28T05:14:27.935Z,96423.91
2023-01-28T05:17:02.487Z,96428.94
2023-01-28T05:19:30.749Z,96429.03
2023-01-28T05:21:59.213Z,96432.44
2023-01-28T05:24:27.887Z,96421.59
2023-01-28T05:27:02.301Z,96429.19
2023-01-28T05:29:32.808Z,96431.88
2023-01-28T05:32:01.246Z,96425.44
2023-01-28T05:34:31.611Z,96435.41
2023-01-28T05:37:00.469Z,96432.94
2023-01-28T05:39:29.024Z,96435.44
2023-01-28T05:41:57.667Z,96434.66
2023-01-28T05:44:28.587Z,96433.91
2023-01-28T05:46:58.988Z,96437.25
2023-01-28T05:49:27.833Z,96436.34
2023-01-28T05:51:56.691Z,96435.56
2023-01-28T05:54:25.019Z,96440.66
2023-01-28T05:56:53.749Z,96442.25
2023-01-28T05:59:22.437Z,96443.06
2023-01-28T06:02:17.463Z,96444.75
2023-01-28T06:04:45.763Z,96442.44
2023-01-28T06:07:15.849Z,96444.09
2023-01-28T06:09:44.323Z,96441.72
2023-01-28T06:12:13.396Z,96456.03
2023-01-28T06:14:41.760Z,96453.50
2023-01-28T06:17:10.937Z,96452.63
2023-01-28T06:19:44.121Z,96464.34
2023-01-28T06:23:08.735Z,96459.34
2023-01-28T06:25:37.192Z,96453.31
2023-01-28T06:28:05.815Z,96464.22
2023-01-28T06:30:44.064Z,96467.53
2023-01-28T06:33:14.797Z,96466.69
2023-01-28T06:35:45.116Z,96468.34
2023-01-28T06:38:13.918Z,96465.88
2023-01-28T06:40:42.782Z,96471.72
2023-01-28T06:43:11.201Z,96477.53
2023-01-28T06:45:44.343Z,96467.41
2023-01-28T06:48:21.688Z,96475.88
2023-01-28T06:50:52.663Z,96468.31
2023-01-28T06:53:22.936Z,96474.13
2023-01-28T06:55:51.397Z,96476.50
2023-01-28T06:58:20.089Z,96472.22
2023-01-28T07:00:48.881Z,96476.41
2023-01-28T07:03:18.285Z,96481.44
2023-01-28T07:05:46.793Z,96478.84
2023-01-28T07:08:16.691Z,96486.47
2023-01-28T07:10:46.963Z,96484.00
2023-01-28T07:13:15.856Z,96487.25
2023-01-28T07:15:45.469Z,96481.28
2023-01-28T07:18:14.552Z,96483.63
2023-01-28T07:20:43.119Z,96485.19
2023-01-28T07:23:12.527Z,96482.53
2023-01-28T07:25:42.580Z,96483.28
2023-01-28T07:28:12.119Z,96484.91
2023-01-28T07:30:42.534Z,96489.97
2023-01-28T07:33:11.252Z,96491.72
2023-01-28T07:35:40.208Z,96485.03
2023-01-28T07:38:09.513Z,96479.25
2023-01-28T07:40:38.174Z,96488.44
2023-01-28T07:43:08.443Z,96489.97
2023-01-28T07:45:40.490Z,96493.25
2023-01-28T07:48:11.012Z,96489.00
2023-01-28T07:50:40.367Z,96495.69
2023-01-28T07:53:10.970Z,96495.69
2023-01-28T07:55:39.893Z,96489.75
2023-01-28T07:58:11.327Z,96496.38
2023-01-28T08:00:49.642Z,96500.44
2023-01-28T08:03:18.194Z,96498.66
2023-01-28T08:05:48.552Z,96502.72
2023-01-28T08:08:18.198Z,96497.56
2023-01-28T08:10:47.617Z,96510.09
2023-01-28T08:13:18.751Z,96505.81
2023-01-28T08:15:48.528Z,96508.38
2023-01-28T08:18:18.505Z,96509.06
2023-01-28T08:20:48.009Z,96510.69
2023-01-28T08:23:18.509Z,96507.25
2023-01-28T08:25:52.977Z,96514.03
2023-01-28T08:28:26.788Z,96506.50
2023-01-28T08:30:57.083Z,96510.50
2023-01-28T08:33:26.370Z,96512.22
2023-01-28T08:35:56.233Z,96519.13
2023-01-28T08:38:27.618Z,96519.22
2023-01-28T08:40:59.288Z,96519.97
2023-01-28T08:43:29.933Z,96519.88
2023-01-28T08:46:02.059Z,96514.72
2023-01-28T08:48:34.498Z,96522.13
2023-01-28T08:51:03.936Z,96522.13
2023-01-28T08:53:36.110Z,96516.25
2023-01-28T08:56:05.501Z,96518.78
2023-01-28T08:58:36.397Z,96527.09
2023-01-28T09:01:07.109Z,96525.59
2023-01-28T09:03:36.353Z,96544.00
2023-01-28T09:06:07.098Z,96535.63
2023-01-28T09:08:35.793Z,96529.56
2023-01-28T09:11:04.600Z,96527.63
2023-01-28T09:13:37.530Z,96537.50
2023-01-28T09:16:07.133Z,96536.47
2023-01-28T09:18:35.851Z,96539.03
2023-01-28T09:21:10.190Z,96534.75
2023-01-28T09:23:40.557Z,96548.25
2023-01-28T09:26:09.372Z,96549.84
2023-01-28T09:28:40.465Z,96549.84
2023-01-28T09:31:13.031Z,96546.28
2023-01-28T09:33:42.440Z,96549.69
2023-01-28T09:36:13.275Z,96553.94
2023-01-28T09:38:42.115Z,96552.16
2023-01-28T09:41:28.787Z,96553.66
2023-01-28T09:44:33.087Z,96552.94
2023-01-28T09:47:03.098Z,96556.31
2023-01-28T09:49:36.378Z,96546.34
2023-01-28T09:52:05.680Z,96549.16
2023-01-28T09:54:39.688Z,96549.25
2023-01-28T09:57:14.217Z,96543.34
2023-01-28T09:59:44.832Z,96544.38
2023-01-28T10:02:45.955Z,96552.75
2023-01-28T10:05:22.844Z,96552.63
2023-01-28T10:07:58.023Z,96547.53
2023-01-28T10:10:30.447Z,96553.25
2023-01-28T10:13:13.845Z,96547.44
2023-01-28T10:16:09.913Z,96543.69
2023-01-28T10:18:43.501Z,96542.72
2023-01-28T10:21:17.049Z,96537.63
2023-01-28T10:23:57.524Z,96535.19
2023-01-28T10:26:27.937Z,96528.69
2023-01-28T10:29:19.140Z,96532.69
2023-01-28T10:31:54.630Z,96538.50
2023-01-28T10:34:24.162Z,96534.38
2023-01-28T10:36:52.992Z,96535.84
2023-01-28T10:39:25.167Z,96533.19
2023-01-28T10:41:58.579Z,96530.66
2023-01-28T10:44:33.449Z,96533.41
2023-01-28T10:47:04.873Z,96539.66
2023-01-28T10:49:34.211Z,96525.22
2023-01-28T10:55:07.429Z,96525.72
2023-01-28T10:57:36.581Z,96530.75
2023-01-28T11:00:14.020Z,96534.00
2023-01-28T11:02:44.432Z,96529.44
2023-01-28T11:05:19.447Z,96528.50
2023-01-28T11:08:15.534Z,96522.56
2023-01-28T11:10:45.254Z,96525.03
2023-01-28T11:13:18.761Z,96530.06
2023-01-28T11:15:52.244Z,96530.75
2023-01-28T11:18:25.212Z,96520.41
2023-01-28T11:20:57.068Z,96523.94
2023-01-28T11:23:28.080Z,96522.22
2023-01-28T11:26:06.819Z,96523.03
2023-01-28T11:28:35.931Z,96513.72
2023-01-28T11:31:05.885Z,96515.13
2023-01-28T11:33:41.571Z,96524.56
2023-01-28T11:36:16.240Z,96514.50
2023-01-28T11:38:53.419Z,96523.00
2023-01-28T11:41:44.331Z,96527.28
2023-01-28T11:44:17.706Z,96522.22
2023-01-28T11:47:07.914Z,96526.47
2023-01-28T11:49:55.689Z,96522.63
2023-01-28T11:53:05.064Z,96516.59
2023-01-28T11:55:44.048Z,96513.09
2023-01-28T11:58:22.933Z,96521.38
2023-01-28T12:01:01.990Z,96524.03
2023-01-28T12:03:45.437Z,96527.34
2023-01-28T12:06:34.751Z,96520.94
2023-01-28T12:09:12.101Z,96516.78
2023-01-28T12:12:08.183Z,96531.50
2023-01-28T12:15:13.711Z,96523.94
2023-01-28T12:17:52.201Z,96524.69
2023-01-28T12:20:25.997Z,96523.78
2023-01-28T12:23:07.623Z,96522.84
2023-01-28T12:25:49.618Z,96520.31
2023-01-28T12:28:31.223Z,96527.09
2023-01-28T12:31:08.974Z,96522.00
2023-01-28T12:34:06.183Z,96521.16
2023-01-28T12:36:45.409Z,96518.91
2023-01-28T12:39:24.563Z,96524.69
2023-01-28T12:41:57.497Z,96525.31
2023-01-28T12:44:30.561Z,96522.00
2023-01-28T12:47:01.156Z,96522.88
2023-01-28T12:49:34.886Z,96518.69
2023-01-28T12:52:06.516Z,96524.63
2023-01-28T12:54:41.313Z,96522.09
2023-01-28T12:57:10.880Z,96523.09
2023-01-28T12:59:41.516Z,96531.09
2023-01-28T13:02:22.970Z,96532.91
2023-01-28T13:04:56.186Z,96530.34
2023-01-28T13:07:28.301Z,96529.53
2023-01-28T13:10:04.928Z,96530.25
2023-01-28T13:12:36.422Z,96528.50
2023-01-28T13:15:05.457Z,96534.38
2023-01-28T13:17:34.358Z,96524.50
2023-01-28T13:20:03.085Z,96527.88
2023-01-28T13:22:34.356Z,96535.22
2023-01-28T13:25:24.099Z,96537.59
2023-01-28T13:27:58.426Z,96539.31
2023-01-28T13:30:29.856Z,96539.31
2023-01-28T13:33:03.901Z,96541.06
2023-01-28T13:35:37.902Z,96549.44
2023-01-28T13:38:15.471Z,96556.19
2023-01-28T13:40:54.704Z,96552.13
2023-01-28T13:43:47.204Z,96561.56
2023-01-28T13:46:28.990Z,96554.72
2023-01-28T13:49:02.941Z,96557.94
2023-01-28T13:51:34.472Z,96561.22
2023-01-28T13:54:06.084Z,96558.63
2023-01-28T13:56:43.435Z,96556.78
2023-01-28T13:59:35.609Z,96565.13
2023-01-28T14:02:48.913Z,96564.25
2023-01-28T14:05:48.183Z,96563.47
2023-01-28T14:08:48.272Z,96572.75
2023-01-28T14:11:52.597Z,96577.91
2023-01-28T14:14:47.826Z,96572.13
2023-01-28T14:17:22.859Z,96580.81
2023-01-28T14:19:52.697Z,96577.34
2023-01-28T14:22:22.222Z,96589.84
2023-01-28T14:24:51.270Z,96591.44
2023-01-28T14:27:24.403Z,96579.72
2023-01-28T14:30:05.296Z,96589.84
2023-01-28T14:32:35.585Z,96594.00
2023-01-28T14:35:10.135Z,96599.94
2023-01-28T14:37:39.855Z,96594.06
2023-01-28T14:40:10.000Z,96594.84
2023-01-28T14:42:42.906Z,96596.41
2023-01-28T14:45:43.578Z,96595.63
2023-01-28T14:48:31.049Z,96602.31
2023-01-28T14:51:15.940Z,96609.66
2023-01-28T14:54:11.638Z,96607.03
2023-01-28T14:56:55.848Z,96612.81
2023-01-28T14:59:29.331Z,96612.75
2023-01-28T15:02:00.231Z,96611.19
2023-01-28T15:04:31.099Z,96622.94
2023-01-28T15:07:04.326Z,96622.06
2023-01-28T15:09:34.256Z,96627.09
2023-01-28T15:12:04.141Z,96627.16
2023-01-28T15:14:35.556Z,96630.41
2023-01-28T15:17:05.132Z,96631.22
2023-01-28T15:19:35.362Z,96639.66
2023-01-28T15:22:06.285Z,96639.69
2023-01-28T15:24:36.639Z,96646.50
2023-01-28T15:27:20.381Z,96639.28
2023-01-28T15:30:00.354Z,96640.09
2023-01-28T15:32:31.804Z,96646.78
2023-01-28T15:35:02.648Z,96641.72
2023-01-28T15:37:31.202Z,96650.84
2023-01-28T15:40:06.356Z,96648.28
2023-01-28T15:42:35.767Z,96653.31
2023-01-28T15:45:07.547Z,96651.66
2023-01-28T15:47:41.911Z,96649.28
2023-01-28T15:51:04.302Z,96657.69
2023-01-28T15:53:37.643Z,96657.81
2023-01-28T15:56:33.573Z,96655.28
2023-01-28T15:59:28.258Z,96660.25
2023-01-28T16:02:23.769Z,96662.72
2023-01-28T16:05:02.690Z,96666.94
2023-01-28T16:07:33.436Z,96664.47
2023-01-28T16:10:10.588Z,96669.56
2023-01-28T16:12:40.069Z,96658.84
2023-01-28T16:15:19.612Z,96673.06
2023-01-28T16:17:51.666Z,96667.25
2023-01-28T16:20:24.508Z,96672.97
2023-01-28T16:22:53.678Z,96680.66
2023-01-28T16:25:29.270Z,96676.47
2023-01-28T16:27:58.367Z,96683.19
2023-01-28T16:30:28.616Z,96687.47
2023-01-28T16:32:58.782Z,96689.94
2023-01-28T16:35:38.262Z,96692.47
2023-01-28T16:38:18.167Z,96690.81
2023-01-28T16:40:47.632Z,96702.50
2023-01-28T16:43:17.460Z,96710.09
2023-01-28T16:45:46.770Z,96704.97
2023-01-28T16:48:16.695Z,96704.09
2023-01-28T16:50:45.593Z,96705.75
2023-01-28T16:53:21.239Z,96707.44
2023-01-28T16:55:58.401Z,96715.88
2023-01-28T16:58:28.545Z,96718.31
2023-01-28T17:00:57.283Z,96717.53
2023-01-28T17:03:27.316Z,96716.66
2023-01-28T17:05:57.643Z,96717.63
2023-01-28T17:08:26.757Z,96716.72
2023-01-28T17:10:57.515Z,96731.84
2023-01-28T17:13:26.340Z,96724.25
2023-01-28T17:18:48.859Z,96735.16
2023-01-28T17:21:18.091Z,96731.00
2023-01-28T17:24:12.674Z,96735.19
2023-01-28T17:26:44.278Z,96737.75
2023-01-28T17:29:16.974Z,96736.13
2023-01-28T17:34:42.179Z,96742.06
2023-01-28T17:37:11.695Z,96748.78
2023-01-28T17:39:40.620Z,96755.50
2023-01-28T17:42:09.216Z,96758.06
2023-01-28T17:44:37.921Z,96768.09
2023-01-28T17:47:06.818Z,96763.88
2023-01-28T17:49:35.488Z,96764.72
2023-01-28T17:52:05.946Z,96768.03
2023-01-28T17:54:36.579Z,96769.66
2023-01-28T17:57:05.395Z,96778.06
2023-01-28T17:59:34.692Z,96772.16
2023-01-28T18:02:03.584Z,96780.53
2023-01-28T18:04:31.928Z,96779.75
2023-01-28T18:07:04.814Z,96778.81
2023-01-28T18:09:35.693Z,96780.50
2023-01-28T18:12:04.397Z,96783.94
2023-01-28T18:14:46.231Z,96785.72
2023-01-28T18:17:14.908Z,96788.22
2023-01-28T18:19:43.569Z,96787.44
2023-01-28T18:22:12.584Z,96787.44
2023-01-28T18:24:43.682Z,96792.47
2023-01-28T18:27:11.968Z,96793.25
2023-01-28T18:29:40.522Z,96790.75
2023-01-28T18:32:09.091Z,96796.66
2023-01-28T18:34:38.247Z,96791.72
2023-01-28T18:37:08.691Z,96794.28
2023-01-28T18:39:38.143Z,96794.28
2023-01-28T18:42:09.201Z,96793.53
2023-01-28T18:44:38.964Z,96793.56
2023-01-28T18:47:07.980Z,96792.72
2023-01-28T18:49:38.431Z,96803.63
2023-01-28T18:52:09.484Z,96797.81
2023-01-28T18:54:37.911Z,96796.97
2023-01-28T18:57:08.604Z,96797.81
2023-01-28T18:59:37.219Z,96801.06
2023-01-28T19:02:08.801Z,96808.63
2023-01-28T19:04:37.380Z,96807.75
2023-01-28T19:07:08.014Z,96808.59
2023-01-28T19:09:37.406Z,96815.28
2023-01-28T19:12:07.680Z,96816.09
2023-01-28T19:14:36.559Z,96806.06
2023-01-28T19:17:05.087Z,96818.72
2023-01-28T19:19:33.791Z,96816.22
2023-01-28T19:22:02.660Z,96818.13
2023-01-28T19:24:31.771Z,96813.88
2023-01-28T19:27:00.389Z,96824.03
2023-01-28T19:29:31.044Z,96822.34
2023-01-28T19:31:59.582Z,96819.75
2023-01-28T19:34:28.638Z,96818.84
2023-01-28T19:36:59.372Z,96826.34
2023-01-28T19:39:28.581Z,96823.81
2023-01-28T19:41:57.259Z,96826.31
2023-01-28T19:44:26.421Z,96837.22
2023-01-28T19:46:57.125Z,96843.88
2023-01-28T19:49:26.014Z,96841.38
2023-01-28T19:51:54.476Z,96843.06
2023-01-28T19:54:23.635Z,96834.63
2023-01-28T19:57:46.521Z,96847.25
2023-01-28T20:00:17.858Z,96844.69
2023-01-28T20:02:52.147Z,96844.84
2023-01-28T20:05:20.866Z,96847.34
2023-01-28T20:07:52.429Z,96851.53
2023-01-28T20:10:21.490Z,96850.59
2023-01-28T20:12:50.464Z,96857.28
2023-01-28T20:15:19.352Z,96853.03
2023-01-28T20:17:50.038Z,96862.28
2023-01-28T20:20:18.972Z,96863.13
2023-01-28T20:22:50.789Z,96863.16
2023-01-28T20:25:19.884Z,96867.47
2023-01-28T20:27:49.924Z,96868.41
2023-01-28T20:30:19.140Z,96861.59
2023-01-28T20:32:50.111Z,96864.25
2023-01-28T20:35:18.986Z,96869.31
2023-01-28T20:37:47.697Z,96872.69
2023-01-28T20:40:16.440Z,96870.25
2023-01-28T20:42:45.431Z,96866.94
2023-01-28T20:45:14.265Z,96868.59
2023-01-28T20:47:46.082Z,96876.13
2023-01-28T20:50:16.580Z,96869.34
2023-01-28T20:52:45.468Z,96869.28
2023-01-28T20:55:15.680Z,96869.25
2023-01-28T20:57:44.862Z,96871.84
2023-01-28T21:00:15.577Z,96873.47
2023-01-28T21:02:46.219Z,96872.72
2023-01-28T21:05:17.177Z,96877.75
2023-01-28T21:07:48.979Z,96880.25
2023-01-28T21:10:20.866Z,96871.03
2023-01-28T21:12:50.644Z,96875.25
2023-01-28T21:15:22.754Z,96886.16
2023-01-28T21:17:51.587Z,96883.63
2023-01-28T21:20:23.475Z,96882.88
2023-01-28T21:22:52.646Z,96889.59
2023-01-28T21:25:21.407Z,96882.06
2023-01-28T21:28:03.548Z,96882.94
2023-01-28T21:30:36.094Z,96882.94
2023-01-28T21:33:05.701Z,96889.63
2023-01-28T21:35:39.071Z,96884.59
2023-01-28T21:38:08.819Z,96891.34
2023-01-28T21:41:03.200Z,96900.59
2023-01-28T21:43:44.554Z,96900.59
2023-01-28T21:46:13.308Z,96882.34
2023-01-28T21:48:41.913Z,96905.63
2023-01-28T21:51:29.237Z,96914.03
2023-01-28T21:53:58.208Z,96913.22
2023-01-28T21:56:26.664Z,96920.78
2023-01-28T21:59:18.239Z,96914.94
2023-01-28T22:01:47.236Z,96902.38
2023-01-28T22:04:16.470Z,96902.31
2023-01-28T22:06:46.419Z,96904.81
2023-01-28T22:09:15.312Z,96911.56
2023-01-28T22:11:48.172Z,96907.50
2023-01-28T22:14:17.157Z,96905.06
2023-01-28T22:16:45.939Z,96903.44
2023-01-28T22:19:15.368Z,96907.63
2023-01-28T22:21:47.584Z,96908.47
2023-01-28T22:24:17.621Z,96915.97
2023-01-28T22:26:47.465Z,96902.59
2023-01-28T22:29:17.565Z,96906.75
2023-01-28T22:31:49.186Z,96899.25
2023-01-28T22:34:18.919Z,96905.09
2023-01-28T22:36:49.706Z,96900.06
2023-01-28T22:39:18.879Z,96894.16
2023-01-28T22:41:49.012Z,96890.88
2023-01-28T22:44:17.461Z,96897.53
2023-01-28T22:46:45.958Z,96900.91
2023-01-28T22:49:15.382Z,96905.94
2023-01-28T22:51:44.413Z,96905.97
2023-01-28T22:54:17.667Z,96903.50
2023-01-28T22:56:46.508Z,96900.19
2023-01-28T22:59:16.107Z,96896.00
2023-01-28T23:01:45.837Z,96890.94
2023-01-28T23:04:20.899Z,96898.63
2023-01-28T23:06:49.994Z,96892.00
2023-01-28T23:09:20.128Z,96896.25
2023-01-28T23:11:49.109Z,96885.38
2023-01-28T23:14:35.123Z,96883.63
2023-01-28T23:17:21.415Z,96890.31
2023-01-28T23:20:07.501Z,96889.44
2023-01-28T23:22:53.765Z,96889.41
2023-01-28T23:25:25.116Z,96890.16
2023-01-28T23:27:53.914Z,96889.31
2023-01-28T23:30:25.656Z,96894.34
2023-01-28T23:33:01.716Z,96891.84
2023-01-28T23:35:31.300Z,96893.47
2023-01-28T23:38:00.523Z,96896.00
2023-01-28T23:41:43.339Z,96893.56
2023-01-28T23:44:13.257Z,96894.47
2023-01-28T23:46:42.089Z,96895.31
2023-01-28T23:49:10.689Z,96891.19
2023-01-28T23:51:41.731Z,96889.53
2023-01-28T23:54:10.499Z,96893.81
2023-01-28T23:56:39.528Z,96892.97
2023-01-28T23:59:08.589Z,96889.63
